sensor_id;sensor_type;location;lat;lon;timestamp;pressure;altitude;pressure_sealevel;temperature;humidity
39209;BME280;24929;51.982;4.664;2022-10-16T00:00:19;76658.13;;;-143.36;nan
39209;BME280;24929;51.982;4.664;2022-10-16T00:02:44;76644.06;;;-143.36;nan
39209;BME280;24929;51.982;4.664;2022-10-16T00:05:10;76640.06;;;-143.36;nan
39209;BME280;24929;51.982;4.664;2022-10-16T00:07:35;76634.03;;;-143.36;nan
39209;BME280;24929;51.982;4.664;2022-10-16T00:10:00;76640.06;;;-143.36;nan
39209;BME280;24929;51.982;4.664;2022-10-16T00:12:26;76644.06;;;-143.36;nan
39209;BME280;24929;51.982;4.664;2022-10-16T00:14:51;76648.09;;;-143.36;nan
39209;BME280;24929;51.982;4.664;2022-10-16T00:17:16;76644.06;;;-143.36;nan
39209;BME280;24929;51.982;4.664;2022-10-16T00:19:42;76644.06;;;-143.36;nan
39209;BME280;24929;51.982;4.664;2022-10-16T00:22:07;76640.06;;;-143.36;nan
39209;BME280;24929;51.982;4.664;2022-10-16T00:24:32;76652.09;;;-143.36;nan
39209;BME280;24929;51.982;4.664;2022-10-16T00:26:58;76644.06;;;-143.36;nan
39209;BME280;24929;51.982;4.664;2022-10-16T00:29:23;76652.09;;;-143.36;nan
39209;BME280;24929;51.982;4.664;2022-10-16T00:31:48;76662.13;;;-143.36;nan
39209;BME280;24929;51.982;4.664;2022-10-16T00:34:14;76652.09;;;-143.36;nan
39209;BME280;24929;51.982;4.664;2022-10-16T00:36:39;76632.03;;;-143.36;nan
39209;BME280;24929;51.982;4.664;2022-10-16T00:39:04;76630.03;;;-143.36;nan
39209;BME280;24929;51.982;4.664;2022-10-16T00:41:30;76654.13;;;-143.36;nan
39209;BME280;24929;51.982;4.664;2022-10-16T00:43:58;76652.09;;;-143.36;nan
39209;BME280;24929;51.982;4.664;2022-10-16T00:46:41;76632.03;;;-143.36;nan
39209;BME280;24929;51.982;4.664;2022-10-16T00:49:11;76664.16;;;-143.36;nan
39209;BME280;24929;51.982;4.664;2022-10-16T00:52:00;76658.13;;;-143.36;nan
39209;BME280;24929;51.982;4.664;2022-10-16T00:54:28;76674.19;;;-143.36;nan
39209;BME280;24929;51.982;4.664;2022-10-16T00:56:57;76682.22;;;-143.36;nan
39209;BME280;24929;51.982;4.664;2022-10-16T00:59:30;76662.13;;;-143.36;nan
39209;BME280;24929;51.982;4.664;2022-10-16T01:01:56;76684.22;;;-143.36;nan
39209;BME280;24929;51.982;4.664;2022-10-16T01:04:23;76672.19;;;-143.36;nan
39209;BME280;24929;51.982;4.664;2022-10-16T01:07:06;76636.06;;;-143.36;nan
39209;BME280;24929;51.982;4.664;2022-10-16T01:10:00;76630.03;;;-143.36;nan
39209;BME280;24929;51.982;4.664;2022-10-16T01:12:40;76650.09;;;-143.36;nan
39209;BME280;24929;51.982;4.664;2022-10-16T01:17:56;76646.09;;;-143.36;nan
39209;BME280;24929;51.982;4.664;2022-10-16T01:20:29;76662.13;;;-143.36;nan
39209;BME280;24929;51.982;4.664;2022-10-16T01:28:22;76694.25;;;-143.36;nan
39209;BME280;24929;51.982;4.664;2022-10-16T01:30:51;76692.25;;;-143.36;nan
39209;BME280;24929;51.982;4.664;2022-10-16T01:33:25;76696.25;;;-143.36;nan
39209;BME280;24929;51.982;4.664;2022-10-16T01:35:57;76686.22;;;-143.36;nan
39209;BME280;24929;51.982;4.664;2022-10-16T01:38:38;76698.25;;;-143.36;nan
39209;BME280;24929;51.982;4.664;2022-10-16T01:41:48;76694.25;;;-143.36;nan
39209;BME280;24929;51.982;4.664;2022-10-16T01:44:22;76710.31;;;-143.36;nan
39209;BME280;24929;51.982;4.664;2022-10-16T01:46:52;76720.34;;;-143.36;nan
39209;BME280;24929;51.982;4.664;2022-10-16T01:49:18;76726.34;;;-143.36;nan
39209;BME280;24929;51.982;4.664;2022-10-16T01:51:47;76734.38;;;-143.36;nan
39209;BME280;24929;51.982;4.664;2022-10-16T01:54:16;76740.41;;;-143.36;nan
39209;BME280;24929;51.982;4.664;2022-10-16T01:56:45;76750.44;;;-143.36;nan
39209;BME280;24929;51.982;4.664;2022-10-16T01:59:14;76756.47;;;-143.36;nan
39209;BME280;24929;51.982;4.664;2022-10-16T02:01:43;76778.53;;;-143.36;nan
39209;BME280;24929;51.982;4.664;2022-10-16T02:04:17;76772.50;;;-143.36;nan
39209;BME280;24929;51.982;4.664;2022-10-16T02:06:44;76782.53;;;-143.36;nan
39209;BME280;24929;51.982;4.664;2022-10-16T02:09:09;76770.50;;;-143.36;nan
39209;BME280;24929;51.982;4.664;2022-10-16T02:11:35;76760.47;;;-143.36;nan
39209;BME280;24929;51.982;4.664;2022-10-16T02:14:04;76746.44;;;-143.36;nan
39209;BME280;24929;51.982;4.664;2022-10-16T02:16:42;76744.41;;;-143.36;nan
39209;BME280;24929;51.982;4.664;2022-10-16T02:19:08;76766.50;;;-143.36;nan
39209;BME280;24929;51.982;4.664;2022-10-16T02:21:44;76744.41;;;-143.36;nan
39209;BME280;24929;51.982;4.664;2022-10-16T02:24:33;76740.41;;;-143.36;nan
39209;BME280;24929;51.982;4.664;2022-10-16T02:27:06;76738.41;;;-143.36;nan
39209;BME280;24929;51.982;4.664;2022-10-16T02:29:40;76730.38;;;-143.36;nan
39209;BME280;24929;51.982;4.664;2022-10-16T02:32:11;76740.41;;;-143.36;nan
39209;BME280;24929;51.982;4.664;2022-10-16T02:34:39;76746.44;;;-143.36;nan
39209;BME280;24929;51.982;4.664;2022-10-16T02:37:05;76750.44;;;-143.36;nan
39209;BME280;24929;51.982;4.664;2022-10-16T02:39:32;76742.41;;;-143.36;nan
39209;BME280;24929;51.982;4.664;2022-10-16T02:41:58;76750.44;;;-143.36;nan
39209;BME280;24929;51.982;4.664;2022-10-16T02:44:23;76746.44;;;-143.36;nan
39209;BME280;24929;51.982;4.664;2022-10-16T02:46:48;76742.41;;;-143.36;nan
39209;BME280;24929;51.982;4.664;2022-10-16T02:49:14;76750.44;;;-143.36;nan
39209;BME280;24929;51.982;4.664;2022-10-16T02:51:39;76738.41;;;-143.36;nan
39209;BME280;24929;51.982;4.664;2022-10-16T02:54:04;76724.34;;;-143.36;nan
39209;BME280;24929;51.982;4.664;2022-10-16T02:56:30;76730.38;;;-143.36;nan
39209;BME280;24929;51.982;4.664;2022-10-16T02:58:56;76736.38;;;-143.36;nan
39209;BME280;24929;51.982;4.664;2022-10-16T03:01:22;76742.41;;;-143.36;nan
39209;BME280;24929;51.982;4.664;2022-10-16T03:03:47;76746.44;;;-143.36;nan
39209;BME280;24929;51.982;4.664;2022-10-16T03:06:13;76752.44;;;-143.36;nan
39209;BME280;24929;51.982;4.664;2022-10-16T03:08:38;76760.47;;;-143.36;nan
39209;BME280;24929;51.982;4.664;2022-10-16T03:11:04;76760.47;;;-143.36;nan
39209;BME280;24929;51.982;4.664;2022-10-16T03:13:29;76766.50;;;-143.36;nan
39209;BME280;24929;51.982;4.664;2022-10-16T03:15:55;76762.47;;;-143.36;nan
39209;BME280;24929;51.982;4.664;2022-10-16T03:18:20;76764.50;;;-143.36;nan
39209;BME280;24929;51.982;4.664;2022-10-16T03:20:46;76762.47;;;-143.36;nan
39209;BME280;24929;51.982;4.664;2022-10-16T03:23:11;76750.44;;;-143.36;nan
39209;BME280;24929;51.982;4.664;2022-10-16T03:25:37;76748.44;;;-143.36;nan
39209;BME280;24929;51.982;4.664;2022-10-16T03:28:02;76748.44;;;-143.36;nan
39209;BME280;24929;51.982;4.664;2022-10-16T03:30:28;76762.47;;;-143.36;nan
39209;BME280;24929;51.982;4.664;2022-10-16T03:32:53;76754.44;;;-143.36;nan
39209;BME280;24929;51.982;4.664;2022-10-16T03:35:22;76748.44;;;-143.36;nan
39209;BME280;24929;51.982;4.664;2022-10-16T03:37:49;76746.44;;;-143.36;nan
39209;BME280;24929;51.982;4.664;2022-10-16T03:40:15;76756.47;;;-143.36;nan
39209;BME280;24929;51.982;4.664;2022-10-16T03:42:42;76756.47;;;-143.36;nan
39209;BME280;24929;51.982;4.664;2022-10-16T03:45:08;76764.50;;;-143.36;nan
39209;BME280;24929;51.982;4.664;2022-10-16T03:47:34;76760.47;;;-143.36;nan
39209;BME280;24929;51.982;4.664;2022-10-16T03:49:59;76766.50;;;-143.36;nan
39209;BME280;24929;51.982;4.664;2022-10-16T03:52:25;76772.50;;;-143.36;nan
39209;BME280;24929;51.982;4.664;2022-10-16T03:54:50;76764.50;;;-143.36;nan
39209;BME280;24929;51.982;4.664;2022-10-16T03:57:16;76766.50;;;-143.36;nan
39209;BME280;24929;51.982;4.664;2022-10-16T03:59:41;76772.50;;;-143.36;nan
39209;BME280;24929;51.982;4.664;2022-10-16T04:02:07;76764.50;;;-143.36;nan
39209;BME280;24929;51.982;4.664;2022-10-16T04:04:32;76764.50;;;-143.36;nan
39209;BME280;24929;51.982;4.664;2022-10-16T04:06:57;76774.53;;;-143.36;nan
39209;BME280;24929;51.982;4.664;2022-10-16T04:09:23;76780.53;;;-143.36;nan
39209;BME280;24929;51.982;4.664;2022-10-16T04:11:48;76784.56;;;-143.36;nan
39209;BME280;24929;51.982;4.664;2022-10-16T04:14:13;76794.59;;;-143.36;nan
39209;BME280;24929;51.982;4.664;2022-10-16T04:16:39;76790.56;;;-143.36;nan
39209;BME280;24929;51.982;4.664;2022-10-16T04:19:04;76814.66;;;-143.36;nan
39209;BME280;24929;51.982;4.664;2022-10-16T04:21:29;76798.59;;;-143.36;nan
39209;BME280;24929;51.982;4.664;2022-10-16T04:23:55;76802.63;;;-143.36;nan
39209;BME280;24929;51.982;4.664;2022-10-16T04:26:20;76796.59;;;-143.36;nan
39209;BME280;24929;51.982;4.664;2022-10-16T04:28:45;76796.59;;;-143.36;nan
39209;BME280;24929;51.982;4.664;2022-10-16T04:31:11;76822.69;;;-143.36;nan
39209;BME280;24929;51.982;4.664;2022-10-16T04:33:36;76812.66;;;-143.36;nan
39209;BME280;24929;51.982;4.664;2022-10-16T04:36:02;76794.59;;;-143.36;nan
39209;BME280;24929;51.982;4.664;2022-10-16T04:38:28;76830.72;;;-143.36;nan
39209;BME280;24929;51.982;4.664;2022-10-16T04:40:54;76830.72;;;-143.36;nan
39209;BME280;24929;51.982;4.664;2022-10-16T04:43:20;76810.66;;;-143.36;nan
39209;BME280;24929;51.982;4.664;2022-10-16T04:45:46;76826.69;;;-143.36;nan
39209;BME280;24929;51.982;4.664;2022-10-16T04:48:11;76824.69;;;-143.36;nan
39209;BME280;24929;51.982;4.664;2022-10-16T04:50:36;76828.72;;;-143.36;nan
39209;BME280;24929;51.982;4.664;2022-10-16T04:53:02;76822.69;;;-143.36;nan
39209;BME280;24929;51.982;4.664;2022-10-16T04:55:27;76812.66;;;-143.36;nan
39209;BME280;24929;51.982;4.664;2022-10-16T04:57:52;76836.72;;;-143.36;nan
39209;BME280;24929;51.982;4.664;2022-10-16T05:00:18;76830.72;;;-143.36;nan
39209;BME280;24929;51.982;4.664;2022-10-16T05:02:43;76826.69;;;-143.36;nan
39209;BME280;24929;51.982;4.664;2022-10-16T05:05:09;76832.72;;;-143.36;nan
39209;BME280;24929;51.982;4.664;2022-10-16T05:07:34;76834.72;;;-143.36;nan
39209;BME280;24929;51.982;4.664;2022-10-16T05:10:00;76832.72;;;-143.36;nan
39209;BME280;24929;51.982;4.664;2022-10-16T05:12:25;76842.75;;;-143.36;nan
39209;BME280;24929;51.982;4.664;2022-10-16T05:14:51;76834.72;;;-143.36;nan
39209;BME280;24929;51.982;4.664;2022-10-16T05:17:16;76832.72;;;-143.36;nan
39209;BME280;24929;51.982;4.664;2022-10-16T05:19:41;76838.75;;;-143.36;nan
39209;BME280;24929;51.982;4.664;2022-10-16T05:22:07;76824.69;;;-143.36;nan
39209;BME280;24929;51.982;4.664;2022-10-16T05:24:32;76834.72;;;-143.36;nan
39209;BME280;24929;51.982;4.664;2022-10-16T05:26:58;76838.75;;;-143.36;nan
39209;BME280;24929;51.982;4.664;2022-10-16T05:29:23;76840.75;;;-143.36;nan
39209;BME280;24929;51.982;4.664;2022-10-16T05:31:52;76812.66;;;-143.36;nan
39209;BME280;24929;51.982;4.664;2022-10-16T05:34:19;76820.69;;;-143.36;nan
39209;BME280;24929;51.982;4.664;2022-10-16T05:36:44;76858.81;;;-143.36;nan
39209;BME280;24929;51.982;4.664;2022-10-16T05:39:10;76842.75;;;-143.36;nan
39209;BME280;24929;51.982;4.664;2022-10-16T05:41:36;76848.78;;;-143.36;nan
39209;BME280;24929;51.982;4.664;2022-10-16T05:44:05;76828.72;;;-143.36;nan
39209;BME280;24929;51.982;4.664;2022-10-16T05:46:31;76844.75;;;-143.36;nan
39209;BME280;24929;51.982;4.664;2022-10-16T05:48:57;76854.78;;;-143.36;nan
39209;BME280;24929;51.982;4.664;2022-10-16T05:51:22;76858.81;;;-143.36;nan
39209;BME280;24929;51.982;4.664;2022-10-16T05:53:47;76856.81;;;-143.36;nan
39209;BME280;24929;51.982;4.664;2022-10-16T05:56:13;76858.81;;;-143.36;nan
39209;BME280;24929;51.982;4.664;2022-10-16T05:58:39;76866.84;;;-143.36;nan
39209;BME280;24929;51.982;4.664;2022-10-16T06:01:14;76834.72;;;-143.36;nan
39209;BME280;24929;51.982;4.664;2022-10-16T06:03:39;76856.81;;;-143.36;nan
39209;BME280;24929;51.982;4.664;2022-10-16T06:06:10;76844.75;;;-143.36;nan
39209;BME280;24929;51.982;4.664;2022-10-16T06:08:36;76856.81;;;-143.36;nan
39209;BME280;24929;51.982;4.664;2022-10-16T06:11:04;76852.78;;;-143.36;nan
39209;BME280;24929;51.982;4.664;2022-10-16T06:13:29;76866.84;;;-143.36;nan
39209;BME280;24929;51.982;4.664;2022-10-16T06:15:57;76846.78;;;-143.36;nan
39209;BME280;24929;51.982;4.664;2022-10-16T06:18:22;76874.88;;;-143.36;nan
39209;BME280;24929;51.982;4.664;2022-10-16T06:20:48;76872.84;;;-143.36;nan
39209;BME280;24929;51.982;4.664;2022-10-16T06:23:13;76876.88;;;-143.36;nan
39209;BME280;24929;51.982;4.664;2022-10-16T06:25:39;76896.94;;;-143.36;nan
39209;BME280;24929;51.982;4.664;2022-10-16T06:28:04;76884.91;;;-143.36;nan
39209;BME280;24929;51.982;4.664;2022-10-16T06:33:52;76870.84;;;-143.36;nan
39209;BME280;24929;51.982;4.664;2022-10-16T06:36:17;76872.84;;;-143.36;nan
39209;BME280;24929;51.982;4.664;2022-10-16T06:38:44;76864.84;;;-143.36;nan
39209;BME280;24929;51.982;4.664;2022-10-16T06:41:13;76866.84;;;-143.36;nan
39209;BME280;24929;51.982;4.664;2022-10-16T06:43:38;76864.84;;;-143.36;nan
39209;BME280;24929;51.982;4.664;2022-10-16T06:46:06;76854.78;;;-143.36;nan
39209;BME280;24929;51.982;4.664;2022-10-16T06:48:33;76882.88;;;-143.36;nan
39209;BME280;24929;51.982;4.664;2022-10-16T06:53:31;76874.88;;;-143.36;nan
39209;BME280;24929;51.982;4.664;2022-10-16T06:55:57;76896.94;;;-143.36;nan
39209;BME280;24929;51.982;4.664;2022-10-16T06:58:22;76888.91;;;-143.36;nan
39209;BME280;24929;51.982;4.664;2022-10-16T07:00:48;76892.94;;;-143.36;nan
39209;BME280;24929;51.982;4.664;2022-10-16T07:03:14;76904.97;;;-143.36;nan
39209;BME280;24929;51.982;4.664;2022-10-16T07:05:43;76882.88;;;-143.36;nan
39209;BME280;24929;51.982;4.664;2022-10-16T07:08:09;76921.03;;;-143.36;nan
39209;BME280;24929;51.982;4.664;2022-10-16T07:10:34;76925.03;;;-143.36;nan
39209;BME280;24929;51.982;4.664;2022-10-16T07:13:01;76919.00;;;-143.36;nan
39209;BME280;24929;51.982;4.664;2022-10-16T07:15:27;76941.09;;;-143.36;nan
39209;BME280;24929;51.982;4.664;2022-10-16T07:17:52;76943.09;;;-143.36;nan
39209;BME280;24929;51.982;4.664;2022-10-16T07:20:18;76945.09;;;-143.36;nan
39209;BME280;24929;51.982;4.664;2022-10-16T07:22:43;76953.13;;;-143.36;nan
39209;BME280;24929;51.982;4.664;2022-10-16T07:25:09;76959.16;;;-143.36;nan
39209;BME280;24929;51.982;4.664;2022-10-16T07:27:35;76941.09;;;-143.36;nan
39209;BME280;24929;51.982;4.664;2022-10-16T07:30:01;76941.09;;;-143.36;nan
39209;BME280;24929;51.982;4.664;2022-10-16T07:32:26;76949.13;;;-143.36;nan
39209;BME280;24929;51.982;4.664;2022-10-16T07:34:52;76963.16;;;-143.36;nan
39209;BME280;24929;51.982;4.664;2022-10-16T07:37:18;76943.09;;;-143.36;nan
39209;BME280;24929;51.982;4.664;2022-10-16T07:39:43;76939.09;;;-143.36;nan
39209;BME280;24929;51.982;4.664;2022-10-16T07:42:08;76937.06;;;-143.36;nan
39209;BME280;24929;51.982;4.664;2022-10-16T07:44:34;76947.13;;;-143.36;nan
39209;BME280;24929;51.982;4.664;2022-10-16T07:46:59;76943.09;;;-143.36;nan
39209;BME280;24929;51.982;4.664;2022-10-16T07:49:24;76937.06;;;-143.36;nan
39209;BME280;24929;51.982;4.664;2022-10-16T07:51:50;76937.06;;;-143.36;nan
39209;BME280;24929;51.982;4.664;2022-10-16T07:54:15;76925.03;;;-143.36;nan
39209;BME280;24929;51.982;4.664;2022-10-16T07:56:41;76915.00;;;-143.36;nan
39209;BME280;24929;51.982;4.664;2022-10-16T07:59:06;76925.03;;;-143.36;nan
39209;BME280;24929;51.982;4.664;2022-10-16T08:01:32;76931.06;;;-143.36;nan
39209;BME280;24929;51.982;4.664;2022-10-16T08:03:57;76921.03;;;-143.36;nan
39209;BME280;24929;51.982;4.664;2022-10-16T08:06:22;76933.06;;;-143.36;nan
39209;BME280;24929;51.982;4.664;2022-10-16T08:08:48;76868.84;;;-143.36;nan
39209;BME280;24929;51.982;4.664;2022-10-16T08:11:14;76816.66;;;-143.36;nan
39209;BME280;24929;51.982;4.664;2022-10-16T08:13:41;76818.66;;;-143.36;nan
39209;BME280;24929;51.982;4.664;2022-10-16T08:16:07;76830.72;;;-143.36;nan
39209;BME280;24929;51.982;4.664;2022-10-16T08:18:36;76842.75;;;-143.36;nan
39209;BME280;24929;51.982;4.664;2022-10-16T08:21:03;76848.78;;;-143.36;nan
39209;BME280;24929;51.982;4.664;2022-10-16T08:23:29;76860.81;;;-143.36;nan
39209;BME280;24929;51.982;4.664;2022-10-16T08:25:55;76854.78;;;-143.36;nan
39209;BME280;24929;51.982;4.664;2022-10-16T08:28:21;76864.84;;;-143.36;nan
39209;BME280;24929;51.982;4.664;2022-10-16T08:30:47;76866.84;;;-143.36;nan
39209;BME280;24929;51.982;4.664;2022-10-16T08:33:13;76866.84;;;-143.36;nan
39209;BME280;24929;51.982;4.664;2022-10-16T08:35:38;76858.81;;;-143.36;nan
39209;BME280;24929;51.982;4.664;2022-10-16T08:38:04;76862.81;;;-143.36;nan
39209;BME280;24929;51.982;4.664;2022-10-16T08:40:31;76838.75;;;-143.36;nan
39209;BME280;24929;51.982;4.664;2022-10-16T08:43:21;76820.69;;;-143.36;nan
39209;BME280;24929;51.982;4.664;2022-10-16T08:48:54;76838.75;;;-143.36;nan
39209;BME280;24929;51.982;4.664;2022-10-16T08:51:30;76842.75;;;-143.36;nan
39209;BME280;24929;51.982;4.664;2022-10-16T08:53:58;76832.72;;;-143.36;nan
39209;BME280;24929;51.982;4.664;2022-10-16T08:56:25;76816.66;;;-143.36;nan
39209;BME280;24929;51.982;4.664;2022-10-16T08:58:52;76806.63;;;-143.36;nan
39209;BME280;24929;51.982;4.664;2022-10-16T09:01:19;76810.66;;;-143.36;nan
39209;BME280;24929;51.982;4.664;2022-10-16T09:11:58;76828.72;;;-143.36;nan
39209;BME280;24929;51.982;4.664;2022-10-16T09:14:55;76818.66;;;-143.36;nan
39209;BME280;24929;51.982;4.664;2022-10-16T09:20:19;76756.47;;;-143.36;nan
39209;BME280;24929;51.982;4.664;2022-10-16T09:22:47;76782.53;;;-143.36;nan
39209;BME280;24929;51.982;4.664;2022-10-16T09:25:16;76746.44;;;-143.36;nan
39209;BME280;24929;51.982;4.664;2022-10-16T09:27:44;76774.53;;;-143.36;nan
39209;BME280;24929;51.982;4.664;2022-10-16T09:30:17;76772.50;;;-143.36;nan
39209;BME280;24929;51.982;4.664;2022-10-16T09:32:44;76788.56;;;-143.36;nan
39209;BME280;24929;51.982;4.664;2022-10-16T09:35:15;76772.50;;;-143.36;nan
39209;BME280;24929;51.982;4.664;2022-10-16T09:37:44;76756.47;;;-143.36;nan
39209;BME280;24929;51.982;4.664;2022-10-16T09:40:34;76736.38;;;-143.36;nan
39209;BME280;24929;51.982;4.664;2022-10-16T09:43:25;76716.31;;;-143.36;nan
39209;BME280;24929;51.982;4.664;2022-10-16T09:46:01;76686.22;;;-143.36;nan
39209;BME280;24929;51.982;4.664;2022-10-16T09:48:43;76642.06;;;-143.36;nan
39209;BME280;24929;51.982;4.664;2022-10-16T09:51:30;76624.00;;;-143.36;nan
39209;BME280;24929;51.982;4.664;2022-10-16T09:54:01;76589.91;;;-143.36;nan
39209;BME280;24929;51.982;4.664;2022-10-16T09:56:30;76589.91;;;-143.36;nan
39209;BME280;24929;51.982;4.664;2022-10-16T09:59:00;76573.84;;;-143.36;nan
39209;BME280;24929;51.982;4.664;2022-10-16T10:01:37;76571.84;;;-143.36;nan
39209;BME280;24929;51.982;4.664;2022-10-16T10:04:04;76599.94;;;-143.36;nan
39209;BME280;24929;51.982;4.664;2022-10-16T10:06:35;76571.84;;;-143.36;nan
39209;BME280;24929;51.982;4.664;2022-10-16T10:11:57;76531.69;;;-143.36;nan
39209;BME280;24929;51.982;4.664;2022-10-16T10:16:52;76517.66;;;-143.36;nan
39209;BME280;24929;51.982;4.664;2022-10-16T10:19:21;76523.66;;;-143.36;nan
39209;BME280;24929;51.982;4.664;2022-10-16T10:21:48;76521.66;;;-143.36;nan
39209;BME280;24929;51.982;4.664;2022-10-16T10:24:15;76531.69;;;-143.36;nan
39209;BME280;24929;51.982;4.664;2022-10-16T10:26:53;76505.63;;;-143.36;nan
39209;BME280;24929;51.982;4.664;2022-10-16T10:35:15;76457.44;;;-143.36;nan
39209;BME280;24929;51.982;4.664;2022-10-16T10:45:48;76395.25;;;-143.36;nan
39209;BME280;24929;51.982;4.664;2022-10-16T10:53:47;76381.19;;;-143.36;nan
39209;BME280;24929;51.982;4.664;2022-10-16T11:07:07;76487.56;;;-143.36;nan
39209;BME280;24929;51.982;4.664;2022-10-16T11:09:47;76459.47;;;-143.36;nan
39209;BME280;24929;51.982;4.664;2022-10-16T11:12:19;76467.50;;;-143.36;nan
39209;BME280;24929;51.982;4.664;2022-10-16T11:14:51;76493.56;;;-143.36;nan
39209;BME280;24929;51.982;4.664;2022-10-16T11:17:35;76431.38;;;-143.36;nan
39209;BME280;24929;51.982;4.664;2022-10-16T11:20:20;76421.34;;;-143.36;nan
39209;BME280;24929;51.982;4.664;2022-10-16T11:23:09;76387.22;;;-143.36;nan
39209;BME280;24929;51.982;4.664;2022-10-16T11:25:39;76423.34;;;-143.36;nan
39209;BME280;24929;51.982;4.664;2022-10-16T11:28:14;76471.50;;;-143.36;nan
39209;BME280;24929;51.982;4.664;2022-10-16T11:35:48;76579.88;;;-143.36;nan
39209;BME280;24929;51.982;4.664;2022-10-16T11:38:27;76597.91;;;-143.36;nan
39209;BME280;24929;51.982;4.664;2022-10-16T11:41:00;76613.97;;;-143.36;nan
39209;BME280;24929;51.982;4.664;2022-10-16T11:43:37;76567.81;;;-143.36;nan
39209;BME280;24929;51.982;4.664;2022-10-16T11:46:15;76527.69;;;-143.36;nan
39209;BME280;24929;51.982;4.664;2022-10-16T11:48:57;76473.50;;;-143.36;nan
39209;BME280;24929;51.982;4.664;2022-10-16T11:54:14;76465.47;;;-143.36;nan
39209;BME280;24929;51.982;4.664;2022-10-16T11:56:43;76479.53;;;-143.36;nan
39209;BME280;24929;51.982;4.664;2022-10-16T11:59:27;76449.44;;;-143.36;nan
39209;BME280;24929;51.982;4.664;2022-10-16T12:02:15;76485.53;;;-143.36;nan
39209;BME280;24929;51.982;4.664;2022-10-16T12:04:46;76457.44;;;-143.36;nan
39209;BME280;24929;51.982;4.664;2022-10-16T12:07:22;76443.41;;;-143.36;nan
39209;BME280;24929;51.982;4.664;2022-10-16T12:09:49;76435.38;;;-143.36;nan
39209;BME280;24929;51.982;4.664;2022-10-16T12:15:18;76487.56;;;-143.36;nan
39209;BME280;24929;51.982;4.664;2022-10-16T12:17:46;76487.56;;;-143.36;nan
39209;BME280;24929;51.982;4.664;2022-10-16T12:22:41;76529.69;;;-143.36;nan
39209;BME280;24929;51.982;4.664;2022-10-16T12:25:26;76497.59;;;-143.36;nan
39209;BME280;24929;51.982;4.664;2022-10-16T12:30:42;76487.56;;;-143.36;nan
39209;BME280;24929;51.982;4.664;2022-10-16T12:33:27;76485.53;;;-143.36;nan
39209;BME280;24929;51.982;4.664;2022-10-16T12:35:53;76527.69;;;-143.36;nan
39209;BME280;24929;51.982;4.664;2022-10-16T12:40:56;76439.41;;;-143.36;nan
39209;BME280;24929;51.982;4.664;2022-10-16T12:43:39;76429.34;;;-143.36;nan
39209;BME280;24929;51.982;4.664;2022-10-16T12:48:40;76459.47;;;-143.36;nan
39209;BME280;24929;51.982;4.664;2022-10-16T12:54:15;76449.44;;;-143.36;nan
39209;BME280;24929;51.982;4.664;2022-10-16T12:56:52;76453.44;;;-143.36;nan
39209;BME280;24929;51.982;4.664;2022-10-16T12:59:36;76457.44;;;-143.36;nan
39209;BME280;24929;51.982;4.664;2022-10-16T13:07:48;76443.41;;;-143.36;nan
39209;BME280;24929;51.982;4.664;2022-10-16T13:28:59;76521.66;;;-143.36;nan
39209;BME280;24929;51.982;4.664;2022-10-16T13:31:25;76525.69;;;-143.36;nan
39209;BME280;24929;51.982;4.664;2022-10-16T13:33:53;76535.72;;;-143.36;nan
39209;BME280;24929;51.982;4.664;2022-10-16T13:36:22;76583.88;;;-143.36;nan
39209;BME280;24929;51.982;4.664;2022-10-16T13:38:48;76563.81;;;-143.36;nan
39209;BME280;24929;51.982;4.664;2022-10-16T13:41:24;76563.81;;;-143.36;nan
39209;BME280;24929;51.982;4.664;2022-10-16T13:43:51;76561.81;;;-143.36;nan
39209;BME280;24929;51.982;4.664;2022-10-16T13:46:22;76575.84;;;-143.36;nan
39209;BME280;24929;51.982;4.664;2022-10-16T13:48:58;76583.88;;;-143.36;nan
39209;BME280;24929;51.982;4.664;2022-10-16T13:51:26;76577.84;;;-143.36;nan
39209;BME280;24929;51.982;4.664;2022-10-16T13:53:51;76561.81;;;-143.36;nan
39209;BME280;24929;51.982;4.664;2022-10-16T13:56:20;76557.78;;;-143.36;nan
39209;BME280;24929;51.982;4.664;2022-10-16T13:58:46;76559.78;;;-143.36;nan
39209;BME280;24929;51.982;4.664;2022-10-16T14:01:42;76533.72;;;-143.36;nan
39209;BME280;24929;51.982;4.664;2022-10-16T14:04:10;76545.75;;;-143.36;nan
39209;BME280;24929;51.982;4.664;2022-10-16T14:06:40;76543.75;;;-143.36;nan
39209;BME280;24929;51.982;4.664;2022-10-16T14:09:21;76537.72;;;-143.36;nan
39209;BME280;24929;51.982;4.664;2022-10-16T14:11:49;76529.69;;;-143.36;nan
39209;BME280;24929;51.982;4.664;2022-10-16T14:14:17;76541.72;;;-143.36;nan
39209;BME280;24929;51.982;4.664;2022-10-16T14:16:44;76559.78;;;-143.36;nan
39209;BME280;24929;51.982;4.664;2022-10-16T14:19:23;76559.78;;;-143.36;nan
39209;BME280;24929;51.982;4.664;2022-10-16T14:21:51;76573.84;;;-143.36;nan
39209;BME280;24929;51.982;4.664;2022-10-16T14:26:56;76589.91;;;-143.36;nan
39209;BME280;24929;51.982;4.664;2022-10-16T14:29:23;76547.75;;;-143.36;nan
39209;BME280;24929;51.982;4.664;2022-10-16T14:34:31;76537.72;;;-143.36;nan
39209;BME280;24929;51.982;4.664;2022-10-16T14:37:13;76535.72;;;-143.36;nan
39209;BME280;24929;51.982;4.664;2022-10-16T14:39:40;76537.72;;;-143.36;nan
39209;BME280;24929;51.982;4.664;2022-10-16T14:42:14;76525.69;;;-143.36;nan
39209;BME280;24929;51.982;4.664;2022-10-16T14:44:40;76557.78;;;-143.36;nan
39209;BME280;24929;51.982;4.664;2022-10-16T14:47:13;76535.72;;;-143.36;nan
39209;BME280;24929;51.982;4.664;2022-10-16T14:49:41;76535.72;;;-143.36;nan
39209;BME280;24929;51.982;4.664;2022-10-16T14:52:12;76513.63;;;-143.36;nan
39209;BME280;24929;51.982;4.664;2022-10-16T14:54:38;76531.69;;;-143.36;nan
39209;BME280;24929;51.982;4.664;2022-10-16T14:57:04;76541.72;;;-143.36;nan
39209;BME280;24929;51.982;4.664;2022-10-16T14:59:35;76547.75;;;-143.36;nan
39209;BME280;24929;51.982;4.664;2022-10-16T15:02:16;76559.78;;;-143.36;nan
39209;BME280;24929;51.982;4.664;2022-10-16T15:04:43;76589.91;;;-143.36;nan
39209;BME280;24929;51.982;4.664;2022-10-16T15:07:09;76595.91;;;-143.36;nan